Latest Weather Observations for Merimbula

IDN60801

Issued at 3:05 pm EST Friday 25 April 2014 (issued every 30 minutes, with the page automatically refreshed every 10 minutes)

About weather observations | Map of weather stations | Latest weather observations for NSW | Other Formats
Station Details ID: 069147 Name: MERIMBULA AIRPORT AWS Lat: -36.91 Lon: 149.90 Height: 1.5 m
Data from the previous 72 hours. | See also: Recent months at Merimbula
Date/Time
EST
Temp
°C
App
Temp
°C
Dew
Point
Rel
Hum
%
Delta-T
°C
Wind Press
QNH
hPa
Press
MSL
hPa
Rain
since 9 am
mm
Dir
 
Spd
km/h
Gust
km/h
Spd
kts
Gust
kts
25/03:00pm 20.2 17.7 10.9 55 5.1 N 15 26 8 14 1018.2 1018.2 0.0
25/02:30pm 20.8 18.3 11.2 54 5.3 N 15 24 8 13 1018.6 - 0.0
25/02:00pm 20.7 18.2 11.1 54 5.3 N 15 24 8 13 1019.0 - 0.0
25/01:30pm 19.0 16.7 10.6 58 4.5 N 13 20 7 11 1019.5 - 0.0
25/01:00pm 19.0 16.6 10.0 56 4.8 NNE 13 20 7 11 1020.0 - 0.0
25/12:30pm 18.8 16.1 9.0 53 5.1 NNE 13 20 7 11 1020.7 - 0.0
25/12:00pm 19.9 17.3 9.2 50 5.6 N 13 19 7 10 1021.5 1021.5 0.0
25/11:30am 18.8 16.4 8.7 52 5.2 NE 11 19 6 10 1022.1 - 0.0
25/11:00am 18.2 16.7 8.5 53 5.0 E 6 17 3 9 1022.6 - 0.0
25/10:30am 17.4 15.5 6.6 49 5.3 NW 6 11 3 6 1023.0 - 0.0
25/10:00am 17.1 14.7 6.9 51 5.1 W 9 13 5 7 1023.2 - 0.0
25/09:30am 16.3 13.3 6.2 51 4.9 WNW 11 15 6 8 1023.3 - 0.0
25/09:00am 15.3 12.0 6.3 55 4.3 NW 13 19 7 10 1023.6 1023.6 0.2
25/08:30am 13.6 10.6 6.0 60 3.6 WNW 11 15 6 8 1023.9 - 0.2
25/08:00am 12.4 9.7 5.8 64 3.1 W 9 15 5 8 1023.8 - 0.2
25/07:30am 12.0 10.0 6.9 71 2.4 W 7 13 4 7 1023.7 - 0.2
25/07:00am 11.0 10.3 7.1 77 1.9 CALM 0 0 0 0 1023.3 - 0.2
25/06:30am 10.4 8.3 6.5 77 1.8 SW 7 11 4 6 1023.0 - 0.2
25/06:00am 11.2 8.6 6.3 72 2.3 W 9 15 5 8 1022.7 1022.7 0.2
25/05:30am 9.3 7.2 6.0 80 1.5 WSW 6 7 3 4 1022.6 - 0.2
25/05:00am 9.1 6.8 5.7 79 1.5 SSW 7 9 4 5 1022.4 - 0.2
25/04:30am 9.3 7.1 5.5 77 1.7 WSW 6 9 3 5 1022.4 - 0.2
25/04:00am 8.8 6.1 5.4 79 1.5 W 9 13 5 7 1022.2 - 0.2
25/03:30am 7.5 4.8 5.5 87 0.9 SW 9 13 5 7 1022.0 - 0.2
25/03:00am 6.5 5.3 4.7 88 0.8 CALM 0 0 0 0 1022.1 1022.1 0.2
25/02:30am 6.9 4.1 5.1 88 0.8 W 9 13 5 7 1022.2 - 0.2
25/02:00am 7.1 6.0 4.9 86 1.0 CALM 0 7 0 4 1022.3 - 0.2
25/01:30am 7.9 5.5 5.2 83 1.2 SSW 7 11 4 6 1022.2 - 0.2
25/01:00am 8.4 5.7 5.5 82 1.3 SSW 9 15 5 8 1022.0 - 0.2
25/12:30am 8.6 5.1 5.4 80 1.4 SSW 13 17 7 9 1021.8 - 0.2
25/12:00am 9.8 7.7 6.7 81 1.4 W 7 11 4 6 1021.7 1021.7 0.2
 
Date/Time
EST
Temp
°C
App
Temp
°C
Dew
Point
Rel
Hum
%
Delta-T
°C
Wind Press
QNH
hPa
Press
MSL
hPa
Rain
since 9 am
mm
Dir
 
Spd
km/h
Gust
km/h
Spd
kts
Gust
kts
24/11:30pm 10.2 7.3 6.4 77 1.8 SW 11 13 6 7 1021.4 - 0.2
24/11:00pm 10.1 8.9 4.5 68 2.5 CALM 0 0 0 0 1021.2 - 0.2
24/10:30pm 12.0 9.5 5.0 62 3.2 SW 7 11 4 6 1021.1 - 0.2
24/10:00pm 13.1 8.7 5.0 58 3.7 SSW 17 22 9 12 1020.7 - 0.2
24/09:30pm 13.8 8.5 5.2 56 4.0 SSW 22 39 12 21 1020.0 - 0.2
24/09:00pm 13.7 10.1 5.1 56 4.0 SSW 13 20 7 11 1019.9 1019.9 0.2
24/08:30pm 13.9 9.1 5.8 58 3.8 SW 20 33 11 18 1019.2 - 0.2
24/08:00pm 14.4 9.1 6.7 60 3.7 SW 24 46 13 25 1018.7 - 0.2
24/07:54pm 14.6 8.5 6.7 59 3.8 SW 28 46 15 25 1018.5 - 0.2
24/07:30pm 14.7 9.2 7.5 62 3.6 SW 26 39 14 21 1018.3 - 0.2
24/07:00pm 15.2 10.3 7.0 58 4.0 SW 22 35 12 19 1017.8 - 0.2
24/06:30pm 15.5 10.4 7.5 59 4.0 SW 24 41 13 22 1017.1 - 0.2
24/06:00pm 15.8 10.0 8.1 60 3.9 SW 28 48 15 26 1016.2 1016.2 0.2
24/05:55pm 15.8 10.0 8.1 60 3.9 SW 28 48 15 26 1016.0 - 0.2
24/05:30pm 16.1 10.8 8.6 61 3.8 SW 26 39 14 21 1015.3 - 0.2
24/05:00pm 16.9 10.6 9.1 60 4.0 SW 32 50 17 27 1014.4 - 0.2
24/04:59pm 16.9 10.6 9.1 60 4.0 SW 32 50 17 27 1014.3 - 0.2
24/04:30pm 18.2 11.9 9.8 58 4.4 SSW 33 44 18 24 1013.5 - 0.2
24/04:00pm 20.4 16.9 10.2 52 5.5 SW 19 30 10 16 1012.9 - 0.2
24/03:30pm 21.0 16.8 9.6 48 6.1 SW 22 32 12 17 1012.4 - 0.2
24/03:00pm 20.4 16.0 9.0 48 6.0 SSW 22 35 12 19 1011.9 1011.9 0.2
24/02:49pm 20.7 15.0 8.4 45 6.4 S 28 46 15 25 1011.7 - 0.2
24/02:30pm 24.0 22.8 12.9 50 6.4 E 11 20 6 11 1011.0 - 0.2
24/02:00pm 23.8 22.1 12.4 48 6.5 SSE 13 20 7 11 1010.9 - 0.2
24/01:30pm 26.2 22.1 4.6 25 10.9 WNW 15 26 8 14 1010.4 - 0.2
24/01:00pm 25.9 20.4 1.9 21 11.5 WNW 20 32 11 17 1010.2 - 0.2
24/12:30pm 25.8 20.2 3.7 24 10.9 WNW 22 35 12 19 1010.4 - 0.2
24/12:00pm 25.3 19.6 2.7 23 11.0 W 22 41 12 22 1010.7 1010.7 0.2
24/11:30am 24.9 21.0 7.1 32 9.3 W 17 28 9 15 1010.8 - 0.2
24/11:00am 24.1 22.1 11.4 45 7.1 WSW 13 26 7 14 1011.0 - 0.0
24/10:30am 22.7 21.5 11.7 49 6.2 WSW 9 13 5 7 1011.1 - 0.0
24/10:00am 19.5 19.8 14.5 73 2.9 WSW 6 17 3 9 1011.4 - 0.0
24/09:30am 16.7 18.4 15.2 91 0.9 CALM 0 0 0 0 1011.5 - 0.0
24/09:00am 15.9 17.6 15.1 95 0.5 CALM 0 0 0 0 1011.6 1011.6 0.6
24/08:30am 14.7 14.8 13.9 95 0.4 SW 6 7 3 4 1011.3 - 0.6
24/08:00am 14.0 13.7 13.2 95 0.4 SW 7 11 4 6 1011.0 - 0.6
24/07:30am 13.6 13.1 12.8 95 0.4 SW 7 9 4 5 1010.6 - 0.6
24/07:00am 13.4 14.2 12.6 95 0.4 CALM 0 0 0 0 1010.3 - 0.6
24/06:30am 13.5 13.2 12.7 95 0.4 SW 6 9 3 5 1010.1 - 0.6
24/06:00am 13.1 12.5 12.3 95 0.4 SSW 7 13 4 7 1010.1 1010.1 0.6
24/05:30am 13.3 14.1 12.7 96 0.3 CALM 0 0 0 0 1009.9 - 0.6
24/05:00am 13.2 14.0 12.6 96 0.3 CALM 0 0 0 0 1010.0 - 0.6
24/04:30am 13.4 14.3 12.8 96 0.3 CALM 0 0 0 0 1010.1 - 0.6
24/04:00am 13.4 14.3 12.8 96 0.3 CALM 0 0 0 0 1010.1 - 0.6
24/03:30am 13.3 14.1 12.5 95 0.4 CALM 0 0 0 0 1010.2 - 0.6
24/03:00am 13.5 14.3 12.7 95 0.4 CALM 0 0 0 0 1010.5 1010.5 0.6
24/02:42am 13.4 14.2 12.6 95 0.4 CALM 0 0 0 0 1010.8 - 0.6
24/02:30am 13.6 14.5 12.8 95 0.4 CALM 0 0 0 0 1010.8 - 0.6
24/02:08am 14.1 15.1 13.3 95 0.4 CALM 0 0 0 0 1011.1 - 0.6
24/02:00am 14.1 15.1 13.3 95 0.4 CALM 0 0 0 0 1011.1 - 0.6
24/01:54am 13.7 14.6 12.9 95 0.4 CALM 0 0 0 0 1011.2 - 0.6
24/01:41am 13.8 14.7 13.0 95 0.4 CALM 0 0 0 0 1011.3 - 0.6
24/01:30am 13.7 14.6 12.9 95 0.4 CALM 0 0 0 0 1011.4 - 0.6
24/01:25am 13.7 14.6 12.8 94 0.5 CALM 0 0 0 0 1011.4 - 0.6
24/01:00am 14.4 15.5 13.6 95 0.4 CALM 0 0 0 0 1011.5 - 0.6
24/12:30am 14.4 15.5 13.6 95 0.4 CALM 0 0 0 0 1011.6 - 0.6
24/12:00am 14.9 14.9 14.1 95 0.5 WNW 7 11 4 6 1011.8 1011.8 0.6
 
Date/Time
EST
Temp
°C
App
Temp
°C
Dew
Point
Rel
Hum
%
Delta-T
°C
Wind Press
QNH
hPa
Press
MSL
hPa
Rain
since 9 am
mm
Dir
 
Spd
km/h
Gust
km/h
Spd
kts
Gust
kts
23/11:30pm 15.0 16.3 14.0 94 0.6 CALM 0 0 0 0 1011.9 - 0.6
23/11:00pm 15.4 16.9 14.6 95 0.5 CALM 0 0 0 0 1012.2 - 0.6
23/10:30pm 15.0 16.3 14.0 94 0.6 CALM 0 0 0 0 1012.3 - 0.6
23/10:00pm 15.1 16.4 14.0 93 0.6 CALM 0 0 0 0 1012.4 - 0.6
23/09:30pm 15.5 16.9 14.5 94 0.6 CALM 0 0 0 0 1012.4 - 0.6
23/09:00pm 15.7 17.2 14.6 93 0.6 CALM 0 0 0 0 1012.5 1012.5 0.6
23/08:30pm 16.3 16.9 15.2 93 0.6 WNW 6 9 3 5 1012.7 - 0.6
23/08:00pm 16.8 17.4 15.7 93 0.6 NW 7 9 4 5 1012.7 - 0.6
23/07:30pm 17.1 17.3 15.8 92 0.8 NW 9 11 5 6 1012.6 - 0.6
23/07:00pm 17.2 17.8 15.9 92 0.8 NNW 7 11 4 6 1012.5 - 0.6
23/06:30pm 17.8 20.0 16.5 92 0.8 CALM 0 0 0 0 1012.3 - 0.6
23/06:00pm 17.8 19.8 16.1 90 1.0 CALM 0 0 0 0 1012.2 1012.2 0.6
23/05:30pm 18.5 19.1 16.7 89 1.1 WNW 9 13 5 7 1011.9 - 0.6
23/05:00pm 19.4 20.2 17.4 88 1.2 NW 9 13 5 7 1011.6 - 0.6
23/04:30pm 20.4 21.8 17.4 83 1.8 W 6 9 3 5 1011.4 - 0.6
23/04:00pm 20.3 20.6 16.1 77 2.5 NNE 9 13 5 7 1011.5 - 0.2
23/03:30pm 22.1 21.4 15.5 66 3.9 NNE 13 20 7 11 1011.5 - 0.2
23/03:00pm 23.2 22.8 16.3 65 4.2 NE 13 20 7 11 1011.6 1011.6 0.2
23/02:30pm 23.0 22.1 15.8 64 4.3 NE 15 22 8 12 1011.7 - 0.2
23/02:00pm 23.3 22.1 15.1 60 4.9 ENE 15 20 8 11 1011.8 - 0.2
23/01:30pm 22.7 21.1 15.0 61 4.6 ENE 17 24 9 13 1012.2 - 0.2
23/01:00pm 22.5 21.0 16.3 68 3.8 ENE 19 26 10 14 1012.7 - 0.2
23/12:30pm 21.9 20.9 15.7 68 3.7 ENE 15 24 8 13 1013.5 - 0.2
23/12:00pm 21.3 20.2 15.4 69 3.5 NE 15 20 8 11 1014.2 1014.2 0.2
23/11:30am 21.0 19.3 14.6 67 3.7 E 17 26 9 14 1014.9 - 0.0
23/11:00am 20.7 20.1 14.6 68 3.6 E 11 15 6 8 1015.3 - 0.0
23/10:30am 19.3 19.3 13.5 69 3.3 NNE 6 11 3 6 1015.5 - 0.0
23/10:00am 16.7 16.4 14.3 86 1.4 NNW 9 13 5 7 1015.9 - 0.0
23/09:30am 15.6 15.7 13.8 89 1.0 NNE 6 11 3 6 1016.2 - 0.0
23/09:00am 15.3 14.9 14.0 92 0.7 SSW 9 13 5 7 1017.4 1017.4 1.0
23/08:30am 15.2 16.2 14.2 94 0.6 NNE 2 17 1 9 1016.9 - 1.0
23/08:00am 14.4 15.1 13.4 94 0.6 NNE 2 9 1 5 1017.0 - 0.8
23/07:30am 14.2 15.2 13.2 94 0.6 CALM 0 4 0 2 1017.4 - 0.2
23/07:00am 14.1 14.7 13.1 94 0.6 WNW 2 9 1 5 1016.9 - 0.2
23/06:30am 13.7 14.6 12.9 95 0.4 CALM 0 0 0 0 1016.7 - 0.2
23/06:00am 13.4 14.2 12.6 95 0.4 CALM 0 0 0 0 1017.0 1017.0 0.2
23/05:30am 13.1 13.7 12.0 93 0.6 CALM 0 0 0 0 1016.7 - 0.2
23/05:00am 13.6 13.3 12.7 94 0.5 SSW 6 13 3 7 1016.9 - 0.2
23/04:30am 13.8 12.6 12.7 93 0.6 NW 11 13 6 7 1016.9 - 0.2
23/04:00am 13.5 14.3 12.6 94 0.5 CALM 0 0 0 0 1016.5 - 0.0
23/03:30am 13.0 12.4 11.7 92 0.7 SW 6 9 3 5 1016.3 - 0.0
23/03:00am 12.9 13.4 11.5 91 0.7 CALM 0 0 0 0 1016.2 1016.2 0.0
23/02:30am 13.2 13.7 11.6 90 0.9 CALM 0 0 0 0 1016.5 - 0.0
23/02:00am 13.1 13.6 11.5 90 0.8 CALM 0 0 0 0 1016.9 - 0.0
23/01:30am 12.8 13.2 11.2 90 0.8 CALM 0 0 0 0 1016.9 - 0.0
23/01:00am 12.6 12.9 11.0 90 0.8 CALM 0 0 0 0 1016.8 - 0.0
23/12:30am 12.4 12.5 10.3 87 1.1 CALM 0 0 0 0 1016.9 - 0.0
23/12:00am 12.9 13.1 10.6 86 1.2 CALM 0 0 0 0 1016.7 1016.7 0.0
 
Date/Time
EST
Temp
°C
App
Temp
°C
Dew
Point
Rel
Hum
%
Delta-T
°C
Wind Press
QNH
hPa
Press
MSL
hPa
Rain
since 9 am
mm
Dir
 
Spd
km/h
Gust
km/h
Spd
kts
Gust
kts
22/11:30pm 13.3 13.6 11.0 86 1.2 CALM 0 0 0 0 1016.4 - 0.0
22/11:00pm 13.6 11.7 10.6 82 1.6 SSW 11 15 6 8 1016.5 - 0.0
22/10:30pm 13.4 11.7 11.1 86 1.2 SSW 11 15 6 8 1016.5 - 0.0
22/10:00pm 13.2 11.6 11.6 90 0.9 SSW 11 15 6 8 1016.2 - 0.0
22/09:30pm 12.9 11.7 11.5 91 0.7 SW 9 9 5 5 1016.1 - 0.0
22/09:00pm 13.5 12.8 11.9 90 0.9 WSW 7 9 4 5 1016.2 1016.2 0.0
22/08:30pm 13.8 12.8 12.2 90 0.9 WNW 9 11 5 6 1015.9 - 0.0
22/08:00pm 14.3 13.8 12.7 90 0.9 WSW 7 9 4 5 1015.8 - 0.0
22/07:30pm 14.7 14.3 12.9 89 1.0 SW 7 11 4 6 1015.8 - 0.0
22/07:00pm 15.2 15.4 12.9 86 1.3 WNW 4 9 2 5 1015.5 - 0.0
22/06:30pm 16.3 17.6 14.1 87 1.2 CALM 0 0 0 0 1015.4 - 0.0
22/06:00pm 16.8 17.8 13.3 80 2.0 CALM 0 0 0 0 1015.1 1015.1 0.0
22/05:30pm 18.2 18.9 13.5 74 2.7 NW 2 9 1 5 1014.8 - 0.0
22/05:00pm 19.5 19.0 12.7 65 3.8 E 7 9 4 5 1014.5 - 0.0
22/04:30pm 20.1 19.4 13.1 64 4.0 ESE 9 13 5 7 1014.5 - 0.0
22/04:00pm 20.4 19.3 13.1 63 4.2 ESE 11 17 6 9 1014.4 - 0.0
22/03:30pm 20.9 19.5 13.4 62 4.3 SE 13 17 7 9 1014.4 - 0.0

Other Formats:

Comma delimited format used in spreadsheet applications
http://www.bom.gov.au/fwo/IDN60801/IDN60801.95929.axf

JavaScript Object Notation format (JSON) in row-major order
http://www.bom.gov.au/fwo/IDN60801/IDN60801.95929.json